Time;durP1;ratioP1;P1;durP2;ratioP2;P2;SDS_P1;SDS_P2;PMS_P1;PMS_P2;Temp;Humidity;BMP_temperature;BMP_pressure;BME280_temperature;BME280_humidity;BME280_pressure;Samples;Min_cycle;Max_cycle;Signal;HPM_P1;HPM_P2
2022/06/13 05:11:18;;;;;;;;;8.50;6.25;;;;;17.02;54.81;102216.47;2525292;23;45800;-78
2022/06/13 05:12:36;;;;;;;;;6.50;5.25;;;;;17.02;55.16;102211.16;2400915;28;45525;-78
2022/06/13 05:13:51;;;;;;;;;13.25;6.75;;;;;16.99;54.98;102210.34;2396617;28;44698;-78
2022/06/13 05:15:06;;;;;;;;;5.00;4.00;;;;;16.99;55.17;102212.16;2397434;28;45385;-78
2022/06/13 05:16:37;;;;;;;;;4.50;4.50;;;;;17.03;55.14;102210.25;2401958;28;45308;-78
2022/06/13 05:17:59;;;;;;;;;5.50;5.25;;;;;17.05;55.01;102208.41;2398110;28;47024;-78
2022/06/13 05:19:15;;;;;;;;;4.75;4.00;;;;;17.05;55.01;102211.94;2401444;28;45466;-78
2022/06/13 05:20:35;;;;;;;;;6.50;5.50;;;;;17.06;55.20;102212.81;2399772;28;46462;-78
2022/06/13 05:21:55;;;;;;;;;9.00;6.00;;;;;17.07;55.03;102214.53;2402081;28;44692;-77
2022/06/13 05:23:14;;;;;;;;;8.25;5.25;;;;;17.06;55.44;102208.34;2402942;28;46554;-78
2022/06/13 05:24:33;;;;;;;;;5.00;4.00;;;;;17.09;55.30;102210.00;2394383;28;45257;-76
2022/06/13 05:25:50;;;;;;;;;10.25;7.75;;;;;17.09;55.14;102210.00;2401422;28;45285;-76
2022/06/13 05:27:05;;;;;;;;;8.00;5.25;;;;;17.12;55.36;102215.22;2403132;28;45360;-75
2022/06/13 05:28:18;;;;;;;;;9.50;7.50;;;;;17.14;55.29;102210.72;2400111;28;45657;-75
2022/06/13 05:29:29;;;;;;;;;7.75;5.00;;;;;17.21;55.28;102216.72;2402962;28;45261;-76
2022/06/13 05:30:45;;;;;;;;;8.25;6.25;;;;;17.24;55.43;102213.03;2403014;28;45260;-75
2022/06/13 05:31:55;;;;;;;;;10.00;7.00;;;;;17.26;55.39;102213.88;2400075;28;44710;-76
2022/06/13 05:33:05;;;;;;;;;7.75;5.75;;;;;17.24;55.23;102207.72;2398394;28;45312;-76
2022/06/13 05:34:31;;;;;;;;;8.75;8.00;;;;;17.27;55.09;102208.50;2402879;28;44748;-75
2022/06/13 05:35:43;;;;;;;;;11.00;7.25;;;;;17.26;55.13;102201.44;2402137;28;47086;-75
2022/06/13 05:36:54;;;;;;;;;6.00;5.50;;;;;17.28;55.14;102212.91;2402713;28;45288;-76
2022/06/13 05:38:05;;;;;;;;;13.50;5.00;;;;;17.33;54.90;102212.72;2400947;28;45184;-76
2022/06/13 05:39:15;;;;;;;;;8.50;5.25;;;;;17.32;55.05;102214.50;2402396;28;44763;-76
2022/06/13 05:40:25;;;;;;;;;9.50;6.50;;;;;17.33;54.59;102210.06;2401970;28;48423;-76
2022/06/13 05:41:36;;;;;;;;;7.00;5.75;;;;;17.35;54.85;102212.66;2404957;28;45197;-76
2022/06/13 05:42:47;;;;;;;;;8.00;5.00;;;;;17.36;55.09;102212.59;2400953;28;46974;-76
2022/06/13 05:43:57;;;;;;;;;7.00;6.50;;;;;17.38;55.20;102217.84;2402733;28;44753;-76
2022/06/13 05:45:12;;;;;;;;;8.75;5.75;;;;;17.37;54.88;102221.44;2396874;28;45475;-76
2022/06/13 05:46:31;;;;;;;;;8.00;6.00;;;;;17.36;54.63;102214.41;2401331;28;45421;-76
2022/06/13 05:47:43;;;;;;;;;6.75;4.25;;;;;17.36;54.89;102220.56;2401024;28;45421;-76
2022/06/13 05:48:54;;;;;;;;;6.75;6.00;;;;;17.35;54.93;102224.16;2401704;28;45261;-76
2022/06/13 05:50:04;;;;;;;;;7.00;7.00;;;;;17.36;55.04;102225.03;2401637;28;46332;-76
2022/06/13 05:51:15;;;;;;;;;10.00;5.25;;;;;17.35;55.33;102225.94;2401443;28;45290;-76
2022/06/13 05:52:25;;;;;;;;;7.25;6.25;;;;;17.37;54.89;102218.78;2392288;28;48262;-76
2022/06/13 05:53:36;;;;;;;;;9.50;7.50;;;;;17.40;54.77;102231.94;2400374;28;44817;-76
2022/06/13 05:54:46;;;;;;;;;7.75;5.50;;;;;17.42;55.12;102230.09;2398427;28;45601;-76
2022/06/13 05:56:01;;;;;;;;;6.75;5.00;;;;;17.46;55.06;102242.31;2396511;28;45531;-76
2022/06/13 05:57:12;;;;;;;;;10.25;5.00;;;;;17.45;54.55;102229.97;2398977;28;46309;-76
2022/06/13 05:58:24;;;;;;;;;9.25;7.00;;;;;17.46;54.90;102225.53;2402450;28;44652;-76
2022/06/13 05:59:34;;;;;;;;;5.75;5.00;;;;;17.46;54.48;102226.38;2401398;28;47381;-76
2022/06/13 06:00:47;;;;;;;;;8.25;5.00;;;;;17.43;54.86;102223.88;2400906;28;44802;-76
2022/06/13 06:01:57;;;;;;;;;5.75;5.00;;;;;17.46;54.84;102230.84;2399736;28;45447;-76
2022/06/13 06:03:07;;;;;;;;;7.75;5.25;;;;;17.45;54.72;102235.31;2402317;28;45454;-76
2022/06/13 06:04:18;;;;;;;;;6.50;5.00;;;;;17.47;54.58;102232.56;2402263;28;46607;-76
2022/06/13 06:05:28;;;;;;;;;10.50;6.50;;;;;17.49;54.97;102231.59;2403045;28;45337;-76
2022/06/13 06:06:39;;;;;;;;;8.50;6.00;;;;;17.51;55.09;102232.38;2399897;28;46124;-76
2022/06/13 06:07:49;;;;;;;;;6.75;5.00;;;;;17.54;54.66;102231.41;2393594;28;45413;-76
2022/06/13 06:09:00;;;;;;;;;5.75;5.25;;;;;17.59;55.11;102234.75;2402866;28;45583;-75
2022/06/13 06:10:19;;;;;;;;;8.50;8.50;;;;;17.63;54.80;102243.50;2402893;28;45315;-75
2022/06/13 06:11:30;;;;;;;;;6.75;6.00;;;;;17.61;54.80;102240.00;2396228;28;47146;-76
2022/06/13 06:12:40;;;;;;;;;9.50;6.50;;;;;17.61;54.71;102240.88;2398948;28;44814;-76
2022/06/13 06:13:51;;;;;;;;;6.75;6.25;;;;;17.64;54.94;102237.22;2394403;28;45612;-76
2022/06/13 06:15:02;;;;;;;;;8.00;7.00;;;;;17.66;54.75;102240.69;2401836;28;45495;-76
2022/06/13 06:16:16;;;;;;;;;12.75;6.50;;;;;17.69;55.04;102240.56;2402262;28;46327;-75
2022/06/13 06:17:26;;;;;;;;;9.00;7.25;;;;;17.74;54.85;102237.72;2403001;28;44572;-75
2022/06/13 06:18:36;;;;;;;;;5.75;5.75;;;;;17.80;54.98;102239.28;2402786;28;45431;-76
2022/06/13 06:19:47;;;;;;;;;6.50;5.50;;;;;17.82;54.85;102246.28;2397563;28;45162;-76
2022/06/13 06:20:57;;;;;;;;;7.00;5.00;;;;;17.88;54.28;102242.50;2395168;28;45434;-75
2022/06/13 06:22:08;;;;;;;;;6.25;5.00;;;;;17.93;54.51;102245.84;2400851;28;45270;-76
2022/06/13 06:23:18;;;;;;;;;6.50;5.25;;;;;17.97;54.76;102251.91;2398443;28;46896;-76
2022/06/13 06:24:29;;;;;;;;;8.25;6.25;;;;;18.02;54.22;102246.41;2392140;28;45523;-76
2022/06/13 06:25:41;;;;;;;;;9.75;8.00;;;;;18.04;54.27;102248.06;2401976;28;46664;-76
2022/06/13 06:26:51;;;;;;;;;7.75;6.25;;;;;18.06;54.16;102248.00;2402890;28;44696;-76
2022/06/13 06:28:03;;;;;;;;;6.25;5.50;;;;;18.09;54.56;102255.88;2401894;28;47155;-75
2022/06/13 06:29:13;;;;;;;;;10.75;7.00;;;;;18.12;54.33;102250.44;2407023;28;45234;-75
2022/06/13 06:30:23;;;;;;;;;9.00;5.75;;;;;18.14;53.72;102253.88;2398381;28;46120;-75
2022/06/13 06:31:34;;;;;;;;;10.25;7.00;;;;;18.15;53.57;102250.28;2402070;28;45352;-75
2022/06/13 06:32:46;;;;;;;;;7.25;6.00;;;;;18.19;53.82;102246.63;2402287;28;46469;-75
2022/06/13 06:33:56;;;;;;;;;8.50;6.00;;;;;18.21;54.05;102255.41;2403316;28;44813;-75
2022/06/13 06:35:07;;;;;;;;;9.50;7.00;;;;;18.24;53.31;102250.88;2402252;28;45786;-76
2022/06/13 06:36:18;;;;;;;;;9.00;6.25;;;;;18.28;53.45;102255.13;2395266;28;45178;-75
2022/06/13 06:37:28;;;;;;;;;5.75;5.50;;;;;18.27;53.45;102248.94;2402905;28;46309;-75
2022/06/13 06:38:38;;;;;;;;;10.50;7.00;;;;;18.31;53.48;102247.91;2404471;28;45328;-75
2022/06/13 06:39:49;;;;;;;;;8.75;5.50;;;;;18.33;53.81;102261.13;2404296;28;46597;-78
2022/06/13 06:40:59;;;;;;;;;5.25;5.25;;;;;18.34;53.06;102249.56;2404317;28;45260;-78
2022/06/13 06:42:10;;;;;;;;;10.75;8.50;;;;;18.35;53.39;102255.75;2402560;28;45578;-77
2022/06/13 06:43:20;;;;;;;;;8.50;7.50;;;;;18.36;53.08;102253.03;2397569;28;45281;-78
2022/06/13 06:44:31;;;;;;;;;6.75;5.75;;;;;18.35;53.70;102251.28;2397439;28;47052;-76
2022/06/13 06:45:44;;;;;;;;;7.00;7.00;;;;;18.36;52.91;102247.69;2404041;28;44773;-76
2022/06/13 06:46:54;;;;;;;;;6.75;6.50;;;;;18.38;53.00;102256.47;2402373;28;46651;-75
2022/06/13 06:48:05;;;;;;;;;9.00;6.50;;;;;18.40;53.31;102249.28;2404541;28;44634;-75
2022/06/13 06:49:15;;;;;;;;;6.50;6.25;;;;;18.43;53.02;102254.50;2404223;28;45528;-75
2022/06/13 06:50:31;;;;;;;;;9.25;6.00;;;;;18.41;52.99;102256.34;2404462;28;45229;-75
2022/06/13 06:51:43;;;;;;;;;9.50;7.75;;;;;18.42;52.62;102260.72;2403053;28;47103;-75
2022/06/13 06:52:54;;;;;;;;;7.50;6.25;;;;;18.41;52.85;102255.47;2403966;28;45229;-76
2022/06/13 07:00:02;;;;;;;;;10.00;7.25;;;;;18.46;52.44;102265.94;2403892;28;45367;-75
2022/06/13 07:01:15;;;;;;;;;14.00;8.75;;;;;18.46;52.97;102263.28;2398822;28;45157;-75
2022/06/13 07:02:28;;;;;;;;;10.75;7.50;;;;;18.47;52.98;102267.69;2400025;28;46508;-75
2022/06/13 07:03:40;;;;;;;;;9.50;9.00;;;;;18.48;53.11;102272.94;2396104;28;45253;-75
2022/06/13 07:04:52;;;;;;;;;7.75;5.25;;;;;18.48;52.90;102272.06;2394313;28;45494;-75
2022/06/13 07:06:04;;;;;;;;;8.00;8.00;;;;;18.43;52.62;102267.81;2402102;28;45204;-75
2022/06/13 07:07:14;;;;;;;;;8.75;6.50;;;;;18.47;52.59;102275.66;2403444;28;46338;-75
2022/06/13 07:08:25;;;;;;;;;8.75;7.75;;;;;18.48;52.35;102272.06;2397174;28;44580;-75
2022/06/13 07:09:35;;;;;;;;;12.00;7.50;;;;;18.47;52.72;102273.00;2389750;28;47898;-75
2022/06/13 07:10:47;;;;;;;;;8.00;7.75;;;;;18.44;52.48;102266.88;2388115;28;45167;-75
2022/06/13 07:11:58;;;;;;;;;10.25;7.00;;;;;18.45;52.84;102273.06;2394121;28;45501;-75
2022/06/13 07:13:08;;;;;;;;;8.00;8.00;;;;;18.47;52.82;102273.84;2395003;28;45481;-76
2022/06/13 07:14:33;;;;;;;;;10.00;7.25;;;;;18.50;53.09;102279.03;2399924;28;47984;-75
2022/06/13 07:15:44;;;;;;;;;7.25;6.00;;;;;18.53;52.45;102276.25;2403698;28;45232;-75
2022/06/13 07:16:56;;;;;;;;;11.25;9.00;;;;;18.58;52.95;102278.72;2399024;28;46198;-75
2022/06/13 07:18:08;;;;;;;;;11.25;8.50;;;;;18.57;52.36;102265.50;2395084;28;45451;-75
2022/06/13 07:19:19;;;;;;;;;8.00;6.50;;;;;18.60;52.43;102263.53;2402506;28;46236;-75
2022/06/13 07:20:29;;;;;;;;;8.75;5.75;;;;;18.63;52.26;102265.22;2401683;28;45334;-75
2022/06/13 07:21:40;;;;;;;;;10.50;8.00;;;;;18.65;52.49;102269.53;2400928;28;46286;-75
2022/06/13 07:22:53;;;;;;;;;9.00;6.50;;;;;18.69;51.80;102272.09;2403287;28;45388;-75
2022/06/13 07:24:04;;;;;;;;;4.75;4.75;;;;;18.69;51.96;102269.41;2403143;28;45250;-75
2022/06/13 07:25:18;;;;;;;;;7.00;6.00;;;;;18.72;51.87;102271.94;2403730;28;45177;-75
2022/06/13 07:26:28;;;;;;;;;9.25;6.50;;;;;18.73;51.53;102268.34;2397936;28;46773;-76
2022/06/13 07:27:38;;;;;;;;;14.75;9.25;;;;;18.74;51.79;102268.28;2397036;28;45344;-76
2022/06/13 07:28:49;;;;;;;;;8.25;6.00;;;;;18.77;51.43;102272.59;2403229;28;46416;-75
2022/06/13 07:29:59;;;;;;;;;7.25;6.25;;;;;18.77;51.21;102272.59;2403827;28;45244;-75
2022/06/13 07:31:20;;;;;;;;;9.25;7.50;;;;;18.77;51.02;102267.28;2403028;28;46432;-75
2022/06/13 07:32:30;;;;;;;;;6.75;6.25;;;;;18.77;51.28;102272.59;2404093;28;44655;-75
2022/06/13 07:33:40;;;;;;;;;9.00;6.25;;;;;18.81;51.57;102268.88;2403925;28;46532;-75
2022/06/13 07:34:52;;;;;;;;;8.00;6.75;;;;;18.83;51.45;102271.47;2403035;28;45341;-76
2022/06/13 07:36:03;;;;;;;;;8.50;8.00;;;;;18.83;50.77;102277.66;2400869;28;45541;-76
2022/06/13 07:38:52;;;;;;;;;5.25;4.00;;;;;18.85;50.63;102270.47;2397537;28;45431;-77
2022/06/13 07:40:03;;;;;;;;;6.00;5.00;;;;;18.86;51.10;102272.22;2403362;28;45284;-76
2022/06/13 07:41:18;;;;;;;;;11.50;7.75;;;;;18.89;51.04;102266.72;2409227;28;45536;-76
2022/06/13 07:42:35;;;;;;;;;8.25;7.75;;;;;18.94;50.82;102276.34;2404045;28;44689;-76
2022/06/13 07:43:47;;;;;;;;;7.00;4.25;;;;;18.95;50.92;102273.59;2403987;28;45783;-77
2022/06/13 07:44:57;;;;;;;;;6.00;4.25;;;;;18.96;50.80;102269.16;2403679;28;45309;-77
2022/06/13 07:46:10;;;;;;;;;11.00;5.00;;;;;19.01;50.85;102275.13;2402983;28;46294;-77
2022/06/13 07:47:24;;;;;;;;;11.00;6.50;;;;;19.03;50.75;102273.25;2404045;28;45281;-75
2022/06/13 07:48:34;;;;;;;;;8.50;6.75;;;;;19.05;50.75;102270.50;2402235;28;47071;-76
2022/06/13 07:49:45;;;;;;;;;11.00;7.00;;;;;19.07;49.71;102279.31;2403533;28;44601;-76
2022/06/13 07:50:55;;;;;;;;;6.25;6.00;;;;;19.07;50.37;102274.84;2403774;28;45238;-75
2022/06/13 07:52:06;;;;;;;;;6.25;5.50;;;;;19.08;50.88;102270.38;2404152;28;45233;-75
2022/06/13 07:53:16;;;;;;;;;8.75;6.50;;;;;19.11;50.34;102276.44;2403183;28;46615;-75
2022/06/13 07:54:27;;;;;;;;;6.50;6.00;;;;;19.16;50.74;102280.72;2403195;28;45230;-75
2022/06/13 07:55:38;;;;;;;;;9.00;9.00;;;;;19.17;50.41;102286.00;2394098;28;46296;-75
2022/06/13 07:56:49;;;;;;;;;7.50;6.75;;;;;19.20;49.92;102285.84;2402910;28;45303;-75
2022/06/13 07:58:00;;;;;;;;;10.25;8.00;;;;;19.21;49.80;102284.06;2400477;28;45351;-75
2022/06/13 07:59:25;;;;;;;;;9.50;8.00;;;;;19.21;50.35;102289.41;2394752;28;45319;-76
2022/06/13 08:00:36;;;;;;;;;8.00;7.00;;;;;19.22;50.43;102288.44;2401136;28;47506;-76
2022/06/13 08:01:47;;;;;;;;;8.00;6.00;;;;;19.23;48.86;102290.19;2400928;28;45211;-75
2022/06/13 08:02:59;;;;;;;;;7.50;6.00;;;;;19.24;49.29;102286.56;2403674;28;45367;-75
2022/06/13 08:04:10;;;;;;;;;6.75;6.25;;;;;19.24;48.98;102286.56;2403050;28;44604;-75
2022/06/13 08:05:20;;;;;;;;;5.25;3.50;;;;;19.24;48.62;102278.56;2402959;28;47270;-75
2022/06/13 08:06:31;;;;;;;;;7.50;6.00;;;;;19.25;49.11;102288.31;2396146;28;45481;-75
2022/06/13 08:07:41;;;;;;;;;5.50;4.25;;;;;19.28;49.45;102288.19;2405311;28;48074;-75
2022/06/13 08:08:52;;;;;;;;;6.50;5.50;;;;;19.29;48.92;102287.22;2407708;28;44651;-75
2022/06/13 08:10:03;;;;;;;;;5.25;5.25;;;;;19.30;49.13;102280.97;2400462;28;46503;-75
2022/06/13 08:11:29;;;;;;;;;7.00;4.00;;;;;19.34;49.06;102281.69;2399943;28;45459;-75
2022/06/13 08:12:43;;;;;;;;;7.75;5.25;;;;;19.38;48.75;102279.75;2396907;28;45492;-75
2022/06/13 08:13:54;;;;;;;;;9.00;6.00;;;;;19.39;48.52;102289.47;2399838;28;46410;-75
2022/06/13 08:15:04;;;;;;;;;6.75;5.25;;;;;19.39;48.18;102285.00;2403556;28;46362;-75
2022/06/13 08:16:14;;;;;;;;;4.75;3.00;;;;;19.41;48.02;102280.47;2402278;28;44659;-75
2022/06/13 08:17:25;;;;;;;;;5.00;4.00;;;;;19.41;48.92;102279.63;2401700;28;45318;-75
2022/06/13 08:18:36;;;;;;;;;7.50;4.00;;;;;19.44;48.54;102282.13;2403847;28;44630;-75
2022/06/13 08:19:47;;;;;;;;;6.00;5.00;;;;;19.48;48.61;102286.41;2402563;28;47426;-75
2022/06/13 08:20:58;;;;;;;;;7.75;5.00;;;;;19.52;48.55;102284.44;2403333;28;45383;-76
2022/06/13 08:22:08;;;;;;;;;5.25;5.25;;;;;19.53;47.79;102287.03;2401263;28;46185;-76
2022/06/13 08:23:20;;;;;;;;;4.00;3.50;;;;;19.53;47.77;102286.19;2394446;28;44624;-76
2022/06/13 08:24:31;;;;;;;;;7.00;5.00;;;;;19.54;47.46;102283.44;2402455;28;45993;-75
2022/06/13 08:25:42;;;;;;;;;8.25;4.25;;;;;19.55;47.78;102284.31;2395395;28;45368;-75
2022/06/13 08:26:52;;;;;;;;;5.00;4.50;;;;;19.60;47.72;102281.41;2402531;28;46351;-75
2022/06/13 08:28:04;;;;;;;;;4.50;4.25;;;;;19.64;47.04;102285.66;2402917;28;45284;-75
2022/06/13 08:29:15;;;;;;;;;5.00;5.00;;;;;19.67;47.19;102288.19;2396108;28;45698;-75
2022/06/13 08:30:33;;;;;;;;;6.50;4.25;;;;;19.72;47.37;102280.84;2400289;28;45302;-75
2022/06/13 08:31:43;;;;;;;;;7.25;4.75;;;;;19.74;46.98;102284.28;2403187;28;45303;-75
2022/06/13 08:32:53;;;;;;;;;6.25;4.50;;;;;19.78;47.03;102285.88;2403809;28;44625;-75
2022/06/13 08:34:05;;;;;;;;;5.50;4.75;;;;;19.84;47.54;102287.38;2399914;28;45253;-75
2022/06/13 08:35:16;;;;;;;;;5.50;4.75;;;;;19.88;47.51;102293.41;2394396;28;45143;-75
2022/06/13 08:36:26;;;;;;;;;5.50;5.00;;;;;19.89;46.73;102289.81;2396891;28;48328;-76
2022/06/13 08:37:37;;;;;;;;;7.00;6.00;;;;;19.88;47.12;102290.75;2399786;28;44726;-76
2022/06/13 08:38:48;;;;;;;;;5.50;4.75;;;;;19.88;46.89;102285.41;2404761;28;47508;-75
2022/06/13 08:39:58;;;;;;;;;4.50;4.50;;;;;19.87;46.98;102287.25;2410069;28;44694;-75
2022/06/13 08:41:11;;;;;;;;;5.25;5.00;;;;;19.90;46.40;102288.91;2402342;28;47093;-75
2022/06/13 08:42:53;;;;;;;;;6.00;4.50;;;;;19.90;46.99;102288.91;2402048;28;45466;-75
2022/06/13 08:44:14;;;;;;;;;6.50;5.50;;;;;19.92;47.04;102284.34;2402738;28;45315;-75
2022/06/13 08:45:32;;;;;;;;;5.25;4.00;;;;;19.93;46.73;102288.72;2395248;28;45194;-76
2022/06/13 08:47:15;;;;;;;;;7.50;4.00;;;;;19.94;46.66;102285.13;2394153;28;45375;-75
2022/06/13 08:48:38;;;;;;;;;7.75;6.25;;;;;19.94;46.68;102285.13;2394284;28;45269;-76
2022/06/13 08:50:14;;;;;;;;;8.75;5.00;;;;;19.97;46.56;102289.47;2394005;28;45593;-76
2022/06/13 08:51:49;;;;;;;;;3.75;3.50;;;;;19.97;45.89;102287.66;2401392;28;44674;-76
2022/06/13 08:53:27;;;;;;;;;7.00;5.00;;;;;19.99;45.98;102283.13;2394909;28;47675;-75
2022/06/13 08:54:42;;;;;;;;;8.00;5.00;;;;;19.99;45.90;102280.44;2391602;28;44635;-75
2022/06/13 08:55:59;;;;;;;;;6.50;4.50;;;;;20.01;46.08;102286.56;2396772;28;47313;-75
2022/06/13 08:57:11;;;;;;;;;5.75;4.00;;;;;20.05;45.91;102292.59;2396789;28;45342;-75
2022/06/13 08:58:27;;;;;;;;;7.00;5.00;;;;;20.05;45.91;102286.44;2400128;28;45371;-75
2022/06/13 08:59:43;;;;;;;;;5.25;3.75;;;;;20.08;46.29;102280.91;2402034;28;45362;-75
2022/06/13 09:01:01;;;;;;;;;6.00;6.00;;;;;20.11;45.31;102284.34;2399680;28;46225;-75
2022/06/13 09:02:22;;;;;;;;;3.25;2.00;;;;;20.12;45.71;102280.72;2396352;28;44790;-75
2022/06/13 09:04:01;;;;;;;;;6.75;4.25;;;;;20.15;46.13;102276.19;2395109;28;45581;-75
2022/06/13 09:05:38;;;;;;;;;4.25;3.75;;;;;20.17;45.17;102283.19;2394185;28;45351;-75
2022/06/13 09:07:11;;;;;;;;;10.25;5.00;;;;;20.14;44.98;102283.31;2393658;28;46816;-75
2022/06/13 09:08:28;;;;;;;;;4.00;4.00;;;;;20.11;45.74;102276.34;2396108;28;45439;-76
2022/06/13 09:09:49;;;;;;;;;5.75;4.25;;;;;20.11;44.92;102287.00;2396306;28;46356;-76
2022/06/13 09:11:23;;;;;;;;;9.00;4.50;;;;;20.15;45.16;102282.38;2393360;28;45418;-78
2022/06/13 09:12:57;;;;;;;;;7.75;5.25;;;;;20.16;44.39;102286.78;2394034;28;45239;-76
2022/06/13 09:14:10;;;;;;;;;5.00;3.50;;;;;20.19;44.66;102289.31;2397272;28;44814;-76
2022/06/13 09:15:46;;;;;;;;;4.00;4.00;;;;;20.20;44.64;102283.00;2403156;28;45361;-76
2022/06/13 09:17:07;;;;;;;;;4.75;4.00;;;;;20.22;44.77;102281.13;2396220;28;45258;-75
2022/06/13 09:18:55;;;;;;;;;5.00;4.00;;;;;20.28;44.51;102279.09;2398894;28;45602;-75
2022/06/13 09:20:17;;;;;;;;;5.50;4.75;;;;;20.32;43.89;102284.19;2392808;28;44864;-75
2022/06/13 09:21:51;;;;;;;;;4.00;3.75;;;;;20.34;44.00;102278.81;2399544;28;45427;-76
2022/06/13 09:23:23;;;;;;;;;9.00;6.00;;;;;20.39;43.86;102286.56;2400488;28;45490;-76
2022/06/13 09:25:02;;;;;;;;;5.75;4.50;;;;;20.41;44.32;102280.22;2401198;28;46245;-76
2022/06/13 09:26:20;;;;;;;;;6.25;3.75;;;;;20.45;44.17;102284.44;2391197;28;45246;-76
2022/06/13 09:27:39;;;;;;;;;5.00;5.00;;;;;20.48;43.48;102283.44;2400622;28;45475;-76
2022/06/13 09:28:57;;;;;;;;;4.25;3.75;;;;;20.53;43.55;102281.41;2403366;28;45224;-75
2022/06/13 09:30:19;;;;;;;;;5.25;4.25;;;;;20.56;43.41;102277.72;2402281;28;48391;-76
2022/06/13 09:31:36;;;;;;;;;6.25;4.25;;;;;20.59;42.93;102274.88;2402847;28;45359;-75
2022/06/13 09:32:54;;;;;;;;;6.25;3.00;;;;;20.61;42.73;102277.47;2403145;28;45296;-75
2022/06/13 09:34:32;;;;;;;;;3.75;3.00;;;;;20.61;42.89;102283.69;2402443;28;44655;-76
2022/06/13 09:35:52;;;;;;;;;4.25;3.00;;;;;20.62;41.95;102289.91;2398032;28;45507;-76
2022/06/13 09:37:38;;;;;;;;;5.75;5.75;;;;;20.63;42.29;102287.13;2399063;28;45142;-76
2022/06/13 09:39:10;;;;;;;;;8.00;4.00;;;;;20.65;42.37;102289.72;2402005;28;46350;-76
2022/06/13 09:40:47;;;;;;;;;5.00;4.00;;;;;20.66;42.05;102283.44;2402626;28;45482;-76
2022/06/13 09:42:13;;;;;;;;;7.00;5.00;;;;;20.67;42.63;102286.03;2396142;28;47086;-76
2022/06/13 09:43:39;;;;;;;;;9.00;5.00;;;;;20.69;42.34;102286.81;2395209;28;44677;-76
2022/06/13 09:45:17;;;;;;;;;10.00;5.25;;;;;20.73;42.02;102283.97;2397448;28;45359;-76
2022/06/13 09:46:37;;;;;;;;;5.25;5.25;;;;;20.76;41.70;102279.34;2397745;28;44845;-75
2022/06/13 09:48:12;;;;;;;;;3.75;3.75;;;;;20.81;40.60;102281.78;2389155;28;47151;-75
2022/06/13 09:49:54;;;;;;;;;5.25;3.50;;;;;20.83;40.58;102277.22;2396837;28;44739;-75
2022/06/13 09:51:21;;;;;;;;;4.00;4.00;;;;;20.85;41.21;102277.13;2385873;28;46965;-76
2022/06/13 09:53:01;;;;;;;;;5.00;3.00;;;;;20.89;40.08;102284.91;2402858;28;45169;-75
2022/06/13 09:54:31;;;;;;;;;3.75;3.75;;;;;20.88;41.23;102283.19;2400521;28;45166;-76
2022/06/13 09:55:51;;;;;;;;;6.25;3.50;;;;;20.92;41.05;102282.06;2398338;28;44786;-75
2022/06/13 09:57:35;;;;;;;;;6.75;3.75;;;;;20.95;40.76;102285.53;2399589;28;45582;-75
2022/06/13 09:58:51;;;;;;;;;5.75;4.75;;;;;20.98;41.51;102290.72;2397537;28;45249;-75
2022/06/13 10:00:21;;;;;;;;;5.50;4.75;;;;;21.01;40.74;102295.94;2396891;28;46107;-75
2022/06/13 10:01:43;;;;;;;;;7.00;5.50;;;;;21.02;41.06;102282.47;2402273;28;44724;-75
2022/06/13 10:03:05;;;;;;;;;4.00;4.00;;;;;21.04;40.85;102286.88;2396774;28;46439;-75
2022/06/13 10:04:50;;;;;;;;;3.25;3.25;;;;;21.06;40.01;102285.88;2398263;28;45222;-75
2022/06/13 10:06:15;;;;;;;;;5.25;4.50;;;;;21.10;40.37;102279.41;2375829;28;47071;-75
2022/06/13 10:07:45;;;;;;;;;6.25;4.75;;;;;21.12;40.21;102285.53;2387409;28;45532;-75
2022/06/13 10:09:24;;;;;;;;;5.75;3.50;;;;;21.14;40.04;102270.25;2402143;28;47576;-75
2022/06/13 10:10:45;;;;;;;;;5.75;3.25;;;;;21.17;39.77;102282.59;2393828;28;45540;-75
2022/06/13 10:12:06;;;;;;;;;2.75;2.75;;;;;21.17;39.82;102282.59;2394377;28;45491;-75
2022/06/13 10:13:56;;;;;;;;;5.25;3.75;;;;;21.19;39.46;102277.16;2391767;28;45463;-75
2022/06/13 10:15:30;;;;;;;;;4.00;4.00;;;;;21.22;39.86;102283.22;2398265;28;45502;-75
2022/06/13 10:16:57;;;;;;;;;5.25;2.50;;;;;21.24;39.84;102284.00;2399748;28;45423;-75
2022/06/13 10:18:32;;;;;;;;;5.25;4.00;;;;;21.25;39.62;102279.50;2399143;28;47628;-75
2022/06/13 10:19:42;;;;;;;;;4.75;4.00;;;;;21.27;39.66;102280.28;2392194;28;45459;-75
2022/06/13 10:21:14;;;;;;;;;4.25;3.75;;;;;21.29;39.08;102274.84;2391668;28;47265;-75
2022/06/13 10:22:36;;;;;;;;;4.75;4.75;;;;;21.31;39.69;102270.31;2392781;28;45388;-75
2022/06/13 10:24:09;;;;;;;;;5.00;3.75;;;;;21.32;40.50;102272.88;2401736;28;45502;-75
2022/06/13 10:25:34;;;;;;;;;6.50;4.00;;;;;21.38;39.99;102279.72;2397040;28;45447;-75
2022/06/13 10:26:50;;;;;;;;;5.75;4.00;;;;;21.40;39.25;102279.63;2396310;28;47132;-75
2022/06/13 10:28:01;;;;;;;;;5.00;3.50;;;;;21.42;38.55;102275.03;2397310;28;45407;-75
2022/06/13 10:29:32;;;;;;;;;3.00;3.00;;;;;21.42;39.56;102269.69;2399648;28;45258;-75
2022/06/13 10:30:51;;;;;;;;;4.75;4.00;;;;;21.46;38.81;102273.91;2395553;28;45272;-75
2022/06/13 10:32:09;;;;;;;;;3.25;3.25;;;;;21.47;39.29;102278.34;2397973;28;45401;-75
2022/06/13 10:33:49;;;;;;;;;4.00;3.50;;;;;21.50;38.64;102275.50;2397602;28;45270;-75
2022/06/13 10:35:30;;;;;;;;;7.25;5.00;;;;;21.52;38.82;102265.56;2395912;28;46768;-75
2022/06/13 10:37:14;;;;;;;;;5.00;5.00;;;;;21.56;39.53;102264.44;2395186;28;45324;-75
2022/06/13 10:38:42;;;;;;;;;5.00;5.00;;;;;21.59;39.46;102274.97;2398611;28;47519;-75
2022/06/13 10:39:58;;;;;;;;;5.50;3.75;;;;;21.62;38.94;102267.72;2393162;28;45319;-75
2022/06/13 10:41:09;;;;;;;;;8.50;3.75;;;;;21.64;38.75;102263.16;2392336;28;45394;-75
2022/06/13 10:42:23;;;;;;;;;5.75;4.00;;;;;21.66;39.34;102258.56;2398924;28;45224;-75
2022/06/13 10:43:36;;;;;;;;;3.50;2.50;;;;;21.69;39.16;102261.06;2402015;28;45569;-75
2022/06/13 10:44:47;;;;;;;;;5.75;3.50;;;;;21.72;39.25;102263.59;2401546;28;45444;-75
2022/06/13 10:45:57;;;;;;;;;3.00;3.00;;;;;21.74;38.50;102268.84;2392795;28;45461;-75
2022/06/13 10:47:34;;;;;;;;;4.25;3.75;;;;;21.74;38.99;102275.06;2397472;28;45452;-75
2022/06/13 10:48:57;;;;;;;;;7.75;4.00;;;;;21.76;39.14;102280.31;2396494;28;46150;-75
2022/06/13 10:50:11;;;;;;;;;9.00;4.25;;;;;21.78;39.54;102268.56;2395175;28;45406;-75
2022/06/13 10:51:22;;;;;;;;;4.00;3.50;;;;;21.80;38.81;102269.34;2395677;28;45432;-75
2022/06/13 10:52:39;;;;;;;;;5.00;3.25;;;;;21.85;38.61;102270.91;2398889;28;45336;-75
2022/06/13 10:54:02;;;;;;;;;6.00;3.00;;;;;21.84;39.25;102262.03;2394380;28;48400;-75
2022/06/13 10:55:19;;;;;;;;;4.00;4.00;;;;;21.89;39.99;102265.34;2395989;28;44817;-75
2022/06/13 10:56:44;;;;;;;;;6.00;3.00;;;;;21.92;39.83;102265.16;2394728;28;48218;-75
2022/06/13 10:58:16;;;;;;;;;4.25;3.50;;;;;21.96;38.83;102265.84;2396319;28;45273;-75
2022/06/13 10:59:33;;;;;;;;;3.75;3.50;;;;;21.97;39.11;102267.56;2393201;28;45755;-75
2022/06/13 11:01:05;;;;;;;;;4.00;3.75;;;;;21.99;39.53;102268.34;2394185;28;45266;-75
2022/06/13 11:02:18;;;;;;;;;3.75;3.00;;;;;22.02;39.44;102259.28;2395136;28;46310;-75
2022/06/13 11:03:29;;;;;;;;;3.25;2.00;;;;;22.05;38.63;102261.75;2396111;28;45269;-75
2022/06/13 11:04:39;;;;;;;;;7.50;4.50;;;;;22.07;38.78;102264.34;2394945;28;46166;-75
2022/06/13 11:06:06;;;;;;;;;6.75;4.25;;;;;22.08;38.24;102266.06;2393979;28;45294;-75
2022/06/13 11:07:19;;;;;;;;;5.75;4.00;;;;;22.09;37.62;102266.00;2394341;28;45415;-75
2022/06/13 11:08:30;;;;;;;;;6.75;4.00;;;;;22.08;37.89;102258.91;2396156;28;44787;-75
2022/06/13 11:09:57;;;;;;;;;5.00;4.00;;;;;22.09;38.23;102260.63;2393211;28;45384;-75
2022/06/13 11:11:17;;;;;;;;;5.00;4.00;;;;;22.10;38.15;102256.16;2391459;28;45389;-75
2022/06/13 11:12:36;;;;;;;;;3.25;2.50;;;;;22.11;38.14;102266.75;2392595;28;45352;-75
2022/06/13 11:13:53;;;;;;;;;5.00;5.00;;;;;22.11;38.17;102258.72;2397419;28;45368;-75
2022/06/13 11:23:17;;;;;;;;;6.00;3.00;;;;;22.17;38.85;102248.63;2404251;28;45254;-75
2022/06/13 11:24:54;;;;;;;;;6.25;4.25;;;;;22.22;38.42;102259.91;2400547;28;46277;-75
2022/06/13 11:27:39;;;;;;;;;5.00;4.50;;;;;22.24;38.02;102256.19;2396862;28;44726;-75